sensor_id;sensor_type;location;lat;lon;timestamp;pressure;altitude;pressure_sealevel;temperature;humidity
23996;BME280;12207;50.076;8.848;2022-12-10T00:01:32;99106.28;;;0.42;100.00
23996;BME280;12207;50.076;8.848;2022-12-10T00:03:59;99108.13;;;0.33;100.00
23996;BME280;12207;50.076;8.848;2022-12-10T00:06:28;99112.91;;;0.30;100.00
23996;BME280;12207;50.076;8.848;2022-12-10T00:08:54;99112.38;;;0.34;100.00
23996;BME280;12207;50.076;8.848;2022-12-10T00:11:21;99108.88;;;0.32;100.00
23996;BME280;12207;50.076;8.848;2022-12-10T00:13:48;99113.66;;;0.29;100.00
23996;BME280;12207;50.076;8.848;2022-12-10T00:16:16;99120.75;;;0.35;100.00
23996;BME280;12207;50.076;8.848;2022-12-10T00:18:43;99117.81;;;0.29;100.00
23996;BME280;12207;50.076;8.848;2022-12-10T00:21:11;99122.41;;;0.34;100.00
23996;BME280;12207;50.076;8.848;2022-12-10T00:23:37;99117.81;;;0.29;100.00
23996;BME280;12207;50.076;8.848;2022-12-10T00:26:05;99122.72;;;0.27;100.00
23996;BME280;12207;50.076;8.848;2022-12-10T00:28:32;99120.31;;;0.29;100.00
23996;BME280;12207;50.076;8.848;2022-12-10T00:33:48;99124.00;;;0.22;100.00
23996;BME280;12207;50.076;8.848;2022-12-10T00:36:16;99126.88;;;0.38;100.00
23996;BME280;12207;50.076;8.848;2022-12-10T00:38:43;99122.06;;;0.30;100.00
23996;BME280;12207;50.076;8.848;2022-12-10T00:41:10;99118.47;;;0.38;100.00
23996;BME280;12207;50.076;8.848;2022-12-10T00:43:37;99112.59;;;0.37;100.00
23996;BME280;12207;50.076;8.848;2022-12-10T00:46:04;99110.22;;;0.39;100.00
23996;BME280;12207;50.076;8.848;2022-12-10T00:48:31;99116.91;;;0.16;100.00
23996;BME280;12207;50.076;8.848;2022-12-10T00:50:58;99124.25;;;0.25;100.00
23996;BME280;12207;50.076;8.848;2022-12-10T00:53:26;99113.59;;;0.39;100.00
23996;BME280;12207;50.076;8.848;2022-12-10T00:55:52;99124.25;;;0.25;100.00
23996;BME280;12207;50.076;8.848;2022-12-10T00:58:19;99121.41;;;0.32;100.00
23996;BME280;12207;50.076;8.848;2022-12-10T01:00:46;99118.59;;;0.28;100.00
23996;BME280;12207;50.076;8.848;2022-12-10T01:03:13;99122.41;;;0.34;100.00
23996;BME280;12207;50.076;8.848;2022-12-10T01:05:39;99120.75;;;0.35;100.00
23996;BME280;12207;50.076;8.848;2022-12-10T01:08:06;99119.13;;;0.35;100.00
23996;BME280;12207;50.076;8.848;2022-12-10T01:10:32;99115.31;;;0.40;100.00
23996;BME280;12207;50.076;8.848;2022-12-10T01:12:59;99121.00;;;0.38;100.00
23996;BME280;12207;50.076;8.848;2022-12-10T01:15:25;99125.50;;;0.42;100.00
23996;BME280;12207;50.076;8.848;2022-12-10T01:17:52;99128.09;;;0.43;100.00
23996;BME280;12207;50.076;8.848;2022-12-10T01:20:18;99129.28;;;0.37;100.00
23996;BME280;12207;50.076;8.848;2022-12-10T01:22:45;99125.13;;;0.37;100.00
23996;BME280;12207;50.076;8.848;2022-12-10T01:25:11;99128.19;;;0.33;100.00
23996;BME280;12207;50.076;8.848;2022-12-10T01:27:38;99129.16;;;0.35;100.00
23996;BME280;12207;50.076;8.848;2022-12-10T01:30:05;99140.41;;;0.29;100.00
23996;BME280;12207;50.076;8.848;2022-12-10T01:32:31;99146.81;;;0.25;100.00
23996;BME280;12207;50.076;8.848;2022-12-10T01:34:58;99146.81;;;0.25;100.00
23996;BME280;12207;50.076;8.848;2022-12-10T01:37:24;99148.25;;;0.21;100.00
23996;BME280;12207;50.076;8.848;2022-12-10T01:39:51;99152.91;;;0.17;100.00
23996;BME280;12207;50.076;8.848;2022-12-10T01:42:17;99153.22;;;0.10;100.00
23996;BME280;12207;50.076;8.848;2022-12-10T01:47:10;99160.84;;;0.11;100.00
23996;BME280;12207;50.076;8.848;2022-12-10T01:49:38;99159.72;;;0.08;100.00
23996;BME280;12207;50.076;8.848;2022-12-10T01:52:06;99158.50;;;0.03;100.00
23996;BME280;12207;50.076;8.848;2022-12-10T01:54:38;99166.44;;;-0.03;100.00
23996;BME280;12207;50.076;8.848;2022-12-10T01:57:07;99173.22;;;-0.02;100.00
23996;BME280;12207;50.076;8.848;2022-12-10T01:59:35;99173.00;;;-0.05;100.00
23996;BME280;12207;50.076;8.848;2022-12-10T02:02:14;99172.16;;;-0.16;100.00
23996;BME280;12207;50.076;8.848;2022-12-10T02:07:28;99173.25;;;-0.12;100.00
23996;BME280;12207;50.076;8.848;2022-12-10T02:12:46;99174.44;;;-0.19;100.00
23996;BME280;12207;50.076;8.848;2022-12-10T02:15:15;99168.19;;;-0.24;100.00
23996;BME280;12207;50.076;8.848;2022-12-10T02:17:43;99158.53;;;-0.19;100.00
23996;BME280;12207;50.076;8.848;2022-12-10T02:22:56;99165.91;;;-0.43;100.00
23996;BME280;12207;50.076;8.848;2022-12-10T02:25:28;99163.53;;;-0.41;100.00
23996;BME280;12207;50.076;8.848;2022-12-10T02:30:26;99158.63;;;-0.40;100.00
23996;BME280;12207;50.076;8.848;2022-12-10T02:32:53;99157.75;;;-0.40;100.00
23996;BME280;12207;50.076;8.848;2022-12-10T02:35:25;99164.31;;;-0.53;100.00
23996;BME280;12207;50.076;8.848;2022-12-10T02:38:03;99161.09;;;-0.62;100.00
23996;BME280;12207;50.076;8.848;2022-12-10T02:40:32;99160.22;;;-0.62;100.00
23996;BME280;12207;50.076;8.848;2022-12-10T02:42:59;99161.59;;;-0.66;100.00
23996;BME280;12207;50.076;8.848;2022-12-10T02:45:27;99166.13;;;-0.72;100.00
23996;BME280;12207;50.076;8.848;2022-12-10T02:47:55;99166.03;;;-0.74;100.00
23996;BME280;12207;50.076;8.848;2022-12-10T02:50:23;99158.13;;;-0.78;100.00
23996;BME280;12207;50.076;8.848;2022-12-10T02:52:50;99160.53;;;-0.80;100.00
23996;BME280;12207;50.076;8.848;2022-12-10T02:55:17;99169.19;;;-0.86;100.00
23996;BME280;12207;50.076;8.848;2022-12-10T02:57:50;99170.06;;;-0.86;100.00
23996;BME280;12207;50.076;8.848;2022-12-10T03:00:21;99164.59;;;-0.92;100.00
23996;BME280;12207;50.076;8.848;2022-12-10T03:05:59;99171.22;;;-1.03;100.00
23996;BME280;12207;50.076;8.848;2022-12-10T03:08:45;99168.72;;;-1.03;100.00
23996;BME280;12207;50.076;8.848;2022-12-10T03:11:14;99167.38;;;-1.09;100.00
23996;BME280;12207;50.076;8.848;2022-12-10T03:16:13;99165.88;;;-1.18;100.00
23996;BME280;12207;50.076;8.848;2022-12-10T03:18:41;99166.63;;;-1.19;100.00
23996;BME280;12207;50.076;8.848;2022-12-10T03:21:08;99165.50;;;-1.22;100.00
23996;BME280;12207;50.076;8.848;2022-12-10T03:23:36;99161.13;;;-1.25;100.00
23996;BME280;12207;50.076;8.848;2022-12-10T03:26:03;99151.22;;;-1.23;100.00
23996;BME280;12207;50.076;8.848;2022-12-10T03:28:35;99148.25;;;-1.29;100.00
23996;BME280;12207;50.076;8.848;2022-12-10T03:31:04;99142.22;;;-1.21;100.00
23996;BME280;12207;50.076;8.848;2022-12-10T03:33:32;99150.22;;;-1.25;100.00
23996;BME280;12207;50.076;8.848;2022-12-10T03:35:59;99148.75;;;-1.33;100.00
23996;BME280;12207;50.076;8.848;2022-12-10T03:38:26;99150.50;;;-1.32;100.00
23996;BME280;12207;50.076;8.848;2022-12-10T03:40:52;99147.22;;;-1.31;100.00
23996;BME280;12207;50.076;8.848;2022-12-10T03:43:20;99154.97;;;-1.28;100.00
23996;BME280;12207;50.076;8.848;2022-12-10T03:45:47;99149.97;;;-1.28;100.00
23996;BME280;12207;50.076;8.848;2022-12-10T03:48:13;99148.00;;;-1.32;100.00
23996;BME280;12207;50.076;8.848;2022-12-10T03:50:40;99146.00;;;-1.36;100.00
23996;BME280;12207;50.076;8.848;2022-12-10T03:53:06;99152.50;;;-1.39;100.00
23996;BME280;12207;50.076;8.848;2022-12-10T03:55:33;99141.38;;;-1.42;100.00
23996;BME280;12207;50.076;8.848;2022-12-10T03:57:59;99151.25;;;-1.44;100.00
23996;BME280;12207;50.076;8.848;2022-12-10T04:00:26;99151.88;;;-1.46;100.00
23996;BME280;12207;50.076;8.848;2022-12-10T04:02:53;99159.38;;;-1.46;100.00
23996;BME280;12207;50.076;8.848;2022-12-10T04:05:19;99163.41;;;-1.48;100.00
23996;BME280;12207;50.076;8.848;2022-12-10T04:07:46;99159.03;;;-1.51;100.00
23996;BME280;12207;50.076;8.848;2022-12-10T04:10:12;99158.78;;;-1.54;100.00
23996;BME280;12207;50.076;8.848;2022-12-10T04:12:39;99166.91;;;-1.56;100.00
23996;BME280;12207;50.076;8.848;2022-12-10T04:15:05;99163.28;;;-1.60;100.00
23996;BME280;12207;50.076;8.848;2022-12-10T04:17:51;99160.63;;;-1.62;100.00
23996;BME280;12207;50.076;8.848;2022-12-10T04:20:18;99163.75;;;-1.64;100.00
23996;BME280;12207;50.076;8.848;2022-12-10T04:23:04;99171.66;;;-1.59;100.00
23996;BME280;12207;50.076;8.848;2022-12-10T04:25:49;99160.16;;;-1.57;100.00
23996;BME280;12207;50.076;8.848;2022-12-10T04:28:34;99170.13;;;-1.68;100.00
23996;BME280;12207;50.076;8.848;2022-12-10T04:31:01;99171.00;;;-1.67;100.00
23996;BME280;12207;50.076;8.848;2022-12-10T04:33:27;99170.75;;;-1.70;100.00
23996;BME280;12207;50.076;8.848;2022-12-10T04:35:54;99174.91;;;-1.71;100.00
23996;BME280;12207;50.076;8.848;2022-12-10T04:38:20;99163.78;;;-1.74;100.00
23996;BME280;12207;50.076;8.848;2022-12-10T04:40:47;99163.53;;;-1.77;100.00
23996;BME280;12207;50.076;8.848;2022-12-10T04:43:13;99166.78;;;-1.78;100.00
23996;BME280;12207;50.076;8.848;2022-12-10T04:45:40;99161.78;;;-1.78;100.00
23996;BME280;12207;50.076;8.848;2022-12-10T04:48:06;99162.41;;;-1.81;100.00
23996;BME280;12207;50.076;8.848;2022-12-10T04:50:33;99156.50;;;-1.81;100.00
23996;BME280;12207;50.076;8.848;2022-12-10T04:52:59;99165.50;;;-1.84;100.00
23996;BME280;12207;50.076;8.848;2022-12-10T04:55:26;99167.25;;;-1.83;100.00
23996;BME280;12207;50.076;8.848;2022-12-10T04:57:52;99162.63;;;-1.88;100.00
23996;BME280;12207;50.076;8.848;2022-12-10T05:00:19;99167.38;;;-1.91;100.00
23996;BME280;12207;50.076;8.848;2022-12-10T05:02:47;99159.75;;;-1.93;100.00
23996;BME280;12207;50.076;8.848;2022-12-10T05:05:14;99162.25;;;-1.93;100.00
23996;BME280;12207;50.076;8.848;2022-12-10T05:07:40;99168.13;;;-1.92;100.00
23996;BME280;12207;50.076;8.848;2022-12-10T05:10:07;99172.09;;;-1.94;100.00
23996;BME280;12207;50.076;8.848;2022-12-10T05:12:33;99172.09;;;-1.94;100.00
23996;BME280;12207;50.076;8.848;2022-12-10T05:15:00;99168.75;;;-1.95;100.00
23996;BME280;12207;50.076;8.848;2022-12-10T05:17:26;99179.50;;;-1.96;100.00
23996;BME280;12207;50.076;8.848;2022-12-10T05:19:53;99177.25;;;-1.93;100.00
23996;BME280;12207;50.076;8.848;2022-12-10T05:22:19;99176.84;;;-1.97;100.00
23996;BME280;12207;50.076;8.848;2022-12-10T05:25:04;99180.13;;;-1.98;100.00
23996;BME280;12207;50.076;8.848;2022-12-10T05:27:32;99177.00;;;-1.96;100.00
23996;BME280;12207;50.076;8.848;2022-12-10T05:29:59;99181.75;;;-1.99;100.00
23996;BME280;12207;50.076;8.848;2022-12-10T05:32:25;99187.47;;;-2.00;100.00
23996;BME280;12207;50.076;8.848;2022-12-10T05:34:52;99182.88;;;-1.95;100.00
23996;BME280;12207;50.076;8.848;2022-12-10T05:37:18;99176.25;;;-1.95;100.00
23996;BME280;12207;50.076;8.848;2022-12-10T05:39:45;99184.50;;;-1.86;100.00
23996;BME280;12207;50.076;8.848;2022-12-10T05:42:11;99186.75;;;-1.89;100.00
23996;BME280;12207;50.076;8.848;2022-12-10T05:44:38;99184.00;;;-1.81;100.00
23996;BME280;12207;50.076;8.848;2022-12-10T05:47:04;99190.16;;;-1.78;100.00
23996;BME280;12207;50.076;8.848;2022-12-10T05:49:31;99190.16;;;-1.78;100.00
23996;BME280;12207;50.076;8.848;2022-12-10T05:51:57;99194.66;;;-1.74;100.00
23996;BME280;12207;50.076;8.848;2022-12-10T05:54:24;99199.53;;;-1.65;100.00
23996;BME280;12207;50.076;8.848;2022-12-10T05:56:50;99201.03;;;-1.67;100.00
23996;BME280;12207;50.076;8.848;2022-12-10T05:59:17;99198.78;;;-1.64;100.00
23996;BME280;12207;50.076;8.848;2022-12-10T06:01:44;99189.78;;;-1.62;100.00
23996;BME280;12207;50.076;8.848;2022-12-10T06:04:10;99198.31;;;-1.60;100.00
23996;BME280;12207;50.076;8.848;2022-12-10T06:06:38;99196.66;;;-1.59;100.00
23996;BME280;12207;50.076;8.848;2022-12-10T06:09:06;99195.66;;;-1.62;100.00
23996;BME280;12207;50.076;8.848;2022-12-10T06:11:33;99200.03;;;-1.59;100.00
23996;BME280;12207;50.076;8.848;2022-12-10T06:14:00;99205.66;;;-1.62;100.00
23996;BME280;12207;50.076;8.848;2022-12-10T06:16:28;99210.91;;;-1.58;100.00
23996;BME280;12207;50.076;8.848;2022-12-10T06:18:55;99206.78;;;-1.58;100.00
23996;BME280;12207;50.076;8.848;2022-12-10T06:21:22;99208.81;;;-1.54;100.00
23996;BME280;12207;50.076;8.848;2022-12-10T06:23:49;99212.19;;;-1.53;100.00
23996;BME280;12207;50.076;8.848;2022-12-10T06:26:18;99211.94;;;-1.46;100.00
23996;BME280;12207;50.076;8.848;2022-12-10T06:28:46;99222.06;;;-1.45;100.00
23996;BME280;12207;50.076;8.848;2022-12-10T06:31:13;99217.69;;;-1.47;100.00
23996;BME280;12207;50.076;8.848;2022-12-10T06:33:39;99222.19;;;-1.43;100.00
23996;BME280;12207;50.076;8.848;2022-12-10T06:36:07;99227.44;;;-1.40;100.00
23996;BME280;12207;50.076;8.848;2022-12-10T06:38:34;99235.59;;;-1.32;100.00
23996;BME280;12207;50.076;8.848;2022-12-10T06:41:03;99233.84;;;-1.33;100.00
23996;BME280;12207;50.076;8.848;2022-12-10T06:43:30;99224.72;;;-1.33;100.00
23996;BME280;12207;50.076;8.848;2022-12-10T06:45:56;99234.09;;;-1.30;100.00
23996;BME280;12207;50.076;8.848;2022-12-10T06:48:23;99235.22;;;-1.27;100.00
23996;BME280;12207;50.076;8.848;2022-12-10T06:50:49;99243.75;;;-1.25;100.00
23996;BME280;12207;50.076;8.848;2022-12-10T06:53:16;99245.09;;;-1.18;100.00
23996;BME280;12207;50.076;8.848;2022-12-10T06:55:43;99246.75;;;-1.19;100.00
23996;BME280;12207;50.076;8.848;2022-12-10T06:58:09;99249.59;;;-1.14;100.00
23996;BME280;12207;50.076;8.848;2022-12-10T07:00:36;99257.38;;;-1.11;100.00
23996;BME280;12207;50.076;8.848;2022-12-10T07:03:02;99244.59;;;-1.14;100.00
23996;BME280;12207;50.076;8.848;2022-12-10T07:05:29;99255.88;;;-1.09;100.00
23996;BME280;12207;50.076;8.848;2022-12-10T07:07:55;99258.47;;;-1.07;100.00
23996;BME280;12207;50.076;8.848;2022-12-10T07:10:22;99261.00;;;-0.97;100.00
23996;BME280;12207;50.076;8.848;2022-12-10T07:12:48;99260.84;;;-0.99;100.00
23996;BME280;12207;50.076;8.848;2022-12-10T07:15:15;99257.72;;;-0.96;100.00
23996;BME280;12207;50.076;8.848;2022-12-10T07:17:42;99261.88;;;-0.97;100.00
23996;BME280;12207;50.076;8.848;2022-12-10T07:20:08;99267.50;;;-0.89;100.00
23996;BME280;12207;50.076;8.848;2022-12-10T07:22:38;99265.88;;;-0.88;100.00
23996;BME280;12207;50.076;8.848;2022-12-10T07:25:05;99265.34;;;-0.84;100.00
23996;BME280;12207;50.076;8.848;2022-12-10T07:27:32;99269.88;;;-0.80;100.00
23996;BME280;12207;50.076;8.848;2022-12-10T07:29:58;99275.25;;;-0.76;100.00
23996;BME280;12207;50.076;8.848;2022-12-10T07:32:26;99267.22;;;-0.72;100.00
23996;BME280;12207;50.076;8.848;2022-12-10T07:34:53;99276.84;;;-0.66;100.00
23996;BME280;12207;50.076;8.848;2022-12-10T07:37:20;99274.59;;;-0.63;100.00
23996;BME280;12207;50.076;8.848;2022-12-10T07:39:46;99269.97;;;-0.58;100.00
23996;BME280;12207;50.076;8.848;2022-12-10T07:42:13;99277.59;;;-0.57;100.00
23996;BME280;12207;50.076;8.848;2022-12-10T07:44:39;99281.22;;;-0.53;100.00
23996;BME280;12207;50.076;8.848;2022-12-10T07:47:06;99280.72;;;-0.49;100.00
23996;BME280;12207;50.076;8.848;2022-12-10T07:49:32;99286.44;;;-0.40;100.00
23996;BME280;12207;50.076;8.848;2022-12-10T07:51:59;99281.91;;;-0.34;100.00
23996;BME280;12207;50.076;8.848;2022-12-10T07:54:25;99286.06;;;-0.34;100.00
23996;BME280;12207;50.076;8.848;2022-12-10T07:56:52;99282.78;;;-0.33;100.00
23996;BME280;12207;50.076;8.848;2022-12-10T07:59:18;99284.19;;;-0.27;100.00
23996;BME280;12207;50.076;8.848;2022-12-10T08:01:45;99291.03;;;-0.24;100.00
23996;BME280;12207;50.076;8.848;2022-12-10T08:04:11;99292.91;;;-0.21;100.00
23996;BME280;12207;50.076;8.848;2022-12-10T08:06:38;99288.75;;;-0.11;100.00
23996;BME280;12207;50.076;8.848;2022-12-10T08:09:04;99296.50;;;-0.08;100.00
23996;BME280;12207;50.076;8.848;2022-12-10T08:11:31;99291.03;;;-0.14;100.00
23996;BME280;12207;50.076;8.848;2022-12-10T08:13:58;99288.22;;;-0.07;100.00
23996;BME280;12207;50.076;8.848;2022-12-10T08:16:26;99290.34;;;-0.01;100.00
23996;BME280;12207;50.076;8.848;2022-12-10T08:18:54;99290.19;;;0.08;100.00
23996;BME280;12207;50.076;8.848;2022-12-10T08:21:22;99298.06;;;0.12;100.00
23996;BME280;12207;50.076;8.848;2022-12-10T08:23:49;99301.38;;;0.23;100.00
23996;BME280;12207;50.076;8.848;2022-12-10T08:26:20;99301.00;;;0.29;100.00
23996;BME280;12207;50.076;8.848;2022-12-10T08:28:47;99296.34;;;0.33;100.00
23996;BME280;12207;50.076;8.848;2022-12-10T08:31:15;99303.78;;;0.43;100.00
23996;BME280;12207;50.076;8.848;2022-12-10T08:33:42;99295.09;;;0.50;100.00
23996;BME280;12207;50.076;8.848;2022-12-10T08:36:09;99308.88;;;0.55;100.00
23996;BME280;12207;50.076;8.848;2022-12-10T08:38:36;99312.09;;;0.64;100.00
23996;BME280;12207;50.076;8.848;2022-12-10T08:41:21;99311.03;;;0.73;100.00
23996;BME280;12207;50.076;8.848;2022-12-10T08:43:48;99320.59;;;0.88;100.00
23996;BME280;12207;50.076;8.848;2022-12-10T08:46:15;99314.81;;;0.89;100.00
23996;BME280;12207;50.076;8.848;2022-12-10T08:48:41;99308.06;;;1.00;100.00
23996;BME280;12207;50.076;8.848;2022-12-10T08:51:08;99318.56;;;1.06;100.00
23996;BME280;12207;50.076;8.848;2022-12-10T08:53:35;99321.97;;;1.19;100.00
23996;BME280;12207;50.076;8.848;2022-12-10T08:56:02;99331.31;;;1.31;100.00
23996;BME280;12207;50.076;8.848;2022-12-10T08:58:28;99328.25;;;1.35;100.00
23996;BME280;12207;50.076;8.848;2022-12-10T09:00:55;99329.59;;;1.54;100.00
23996;BME280;12207;50.076;8.848;2022-12-10T09:03:21;99325.44;;;1.54;100.00
23996;BME280;12207;50.076;8.848;2022-12-10T09:05:48;99334.19;;;1.71;100.00
23996;BME280;12207;50.076;8.848;2022-12-10T09:08:15;99327.50;;;1.60;100.00
23996;BME280;12207;50.076;8.848;2022-12-10T09:10:41;99333.31;;;1.59;100.00
23996;BME280;12207;50.076;8.848;2022-12-10T09:13:08;99326.78;;;1.61;100.00
23996;BME280;12207;50.076;8.848;2022-12-10T09:15:34;99341.06;;;1.50;100.00
23996;BME280;12207;50.076;8.848;2022-12-10T09:18:01;99334.78;;;1.33;100.00
23996;BME280;12207;50.076;8.848;2022-12-10T09:20:28;99336.88;;;1.39;100.00
23996;BME280;12207;50.076;8.848;2022-12-10T09:22:54;99340.28;;;1.40;100.00
23996;BME280;12207;50.076;8.848;2022-12-10T09:25:23;99338.72;;;1.30;100.00
23996;BME280;12207;50.076;8.848;2022-12-10T09:27:49;99346.84;;;1.38;100.00
23996;BME280;12207;50.076;8.848;2022-12-10T09:30:16;99338.88;;;1.43;100.00
23996;BME280;12207;50.076;8.848;2022-12-10T09:32:42;99350.56;;;1.54;100.00
23996;BME280;12207;50.076;8.848;2022-12-10T09:35:09;99342.72;;;1.50;100.00
23996;BME280;12207;50.076;8.848;2022-12-10T09:37:35;99349.94;;;1.57;100.00
23996;BME280;12207;50.076;8.848;2022-12-10T09:40:02;99349.28;;;1.71;100.00
23996;BME280;12207;50.076;8.848;2022-12-10T09:42:34;99351.22;;;1.40;100.00
23996;BME280;12207;50.076;8.848;2022-12-10T09:47:40;99344.59;;;1.52;100.00
23996;BME280;12207;50.076;8.848;2022-12-10T09:50:16;99347.53;;;1.58;100.00
23996;BME280;12207;50.076;8.848;2022-12-10T09:52:45;99342.94;;;1.65;100.00
23996;BME280;12207;50.076;8.848;2022-12-10T09:55:15;99337.91;;;1.65;100.00
23996;BME280;12207;50.076;8.848;2022-12-10T09:57:46;99337.47;;;1.58;100.00
23996;BME280;12207;50.076;8.848;2022-12-10T10:00:18;99333.56;;;1.74;100.00
23996;BME280;12207;50.076;8.848;2022-12-10T10:02:45;99335.63;;;1.79;100.00
23996;BME280;12207;50.076;8.848;2022-12-10T10:05:23;99340.53;;;1.66;100.00
23996;BME280;12207;50.076;8.848;2022-12-10T10:07:54;99338.66;;;1.75;100.00
23996;BME280;12207;50.076;8.848;2022-12-10T10:12:48;99339.19;;;1.48;100.00
23996;BME280;12207;50.076;8.848;2022-12-10T10:15:16;99331.91;;;1.63;100.00
23996;BME280;12207;50.076;8.848;2022-12-10T10:17:44;99338.78;;;1.53;100.00
23996;BME280;12207;50.076;8.848;2022-12-10T10:20:13;99339.44;;;1.63;100.00
23996;BME280;12207;50.076;8.848;2022-12-10T10:22:40;99344.25;;;1.71;100.00
23996;BME280;12207;50.076;8.848;2022-12-10T10:25:16;99336.28;;;1.65;100.00
23996;BME280;12207;50.076;8.848;2022-12-10T10:27:44;99339.22;;;1.59;100.00
23996;BME280;12207;50.076;8.848;2022-12-10T10:30:17;99337.56;;;1.48;100.00
23996;BME280;12207;50.076;8.848;2022-12-10T10:32:45;99342.31;;;1.67;100.00
23996;BME280;12207;50.076;8.848;2022-12-10T10:35:22;99345.66;;;1.44;100.00
23996;BME280;12207;50.076;8.848;2022-12-10T10:37:49;99340.50;;;1.54;100.00
23996;BME280;12207;50.076;8.848;2022-12-10T10:40:23;99341.41;;;1.55;100.00
23996;BME280;12207;50.076;8.848;2022-12-10T10:42:52;99336.69;;;1.48;100.00
23996;BME280;12207;50.076;8.848;2022-12-10T10:48:12;99328.16;;;1.57;100.00
23996;BME280;12207;50.076;8.848;2022-12-10T10:50:41;99338.00;;;1.66;100.00
23996;BME280;12207;50.076;8.848;2022-12-10T10:53:21;99341.31;;;1.77;100.00
23996;BME280;12207;50.076;8.848;2022-12-10T10:55:47;99333.63;;;1.75;100.00
23996;BME280;12207;50.076;8.848;2022-12-10T10:58:17;99332.47;;;1.94;100.00
23996;BME280;12207;50.076;8.848;2022-12-10T11:00:52;99342.75;;;1.97;100.00
23996;BME280;12207;50.076;8.848;2022-12-10T11:03:19;99344.28;;;1.95;100.00
23996;BME280;12207;50.076;8.848;2022-12-10T11:05:47;99338.47;;;1.96;100.00
23996;BME280;12207;50.076;8.848;2022-12-10T11:08:17;99338.38;;;1.94;100.00
23996;BME280;12207;50.076;8.848;2022-12-10T11:10:48;99342.75;;;1.85;100.00
23996;BME280;12207;50.076;8.848;2022-12-10T11:13:19;99336.50;;;1.80;100.00
23996;BME280;12207;50.076;8.848;2022-12-10T11:15:47;99344.47;;;1.86;100.00
23996;BME280;12207;50.076;8.848;2022-12-10T11:20:50;99338.22;;;1.69;100.00
23996;BME280;12207;50.076;8.848;2022-12-10T11:23:22;99334.97;;;1.70;100.00
23996;BME280;12207;50.076;8.848;2022-12-10T11:25:55;99340.53;;;1.78;100.00
23996;BME280;12207;50.076;8.848;2022-12-10T11:30:58;99334.31;;;1.61;100.00
23996;BME280;12207;50.076;8.848;2022-12-10T11:34:13;99343.81;;;1.65;100.00
23996;BME280;12207;50.076;8.848;2022-12-10T11:39:14;99344.75;;;1.32;100.00
23996;BME280;12207;50.076;8.848;2022-12-10T11:41:46;99342.59;;;1.48;100.00
23996;BME280;12207;50.076;8.848;2022-12-10T11:44:36;99343.81;;;1.53;100.00
23996;BME280;12207;50.076;8.848;2022-12-10T11:54:56;99343.28;;;1.81;100.00
23996;BME280;12207;50.076;8.848;2022-12-10T11:57:30;99336.69;;;2.18;100.00
23996;BME280;12207;50.076;8.848;2022-12-10T12:02:41;99346.13;;;2.58;100.00
23996;BME280;12207;50.076;8.848;2022-12-10T12:10:53;99353.97;;;3.24;100.00
23996;BME280;12207;50.076;8.848;2022-12-10T12:13:27;99353.88;;;2.72;100.00
23996;BME280;12207;50.076;8.848;2022-12-10T12:16:09;99356.72;;;2.77;100.00
23996;BME280;12207;50.076;8.848;2022-12-10T12:18:51;99362.75;;;2.67;100.00
23996;BME280;12207;50.076;8.848;2022-12-10T12:21:20;99356.63;;;2.64;100.00
23996;BME280;12207;50.076;8.848;2022-12-10T12:23:49;99348.81;;;2.47;100.00
23996;BME280;12207;50.076;8.848;2022-12-10T12:26:25;99353.13;;;2.01;100.00
23996;BME280;12207;50.076;8.848;2022-12-10T12:31:46;99358.38;;;1.81;100.00
23996;BME280;12207;50.076;8.848;2022-12-10T12:34:28;99353.13;;;1.78;100.00
23996;BME280;12207;50.076;8.848;2022-12-10T12:37:02;99360.56;;;1.76;100.00
23996;BME280;12207;50.076;8.848;2022-12-10T12:39:32;99356.97;;;1.73;100.00
23996;BME280;12207;50.076;8.848;2022-12-10T12:49:42;99362.31;;;2.01;100.00
23996;BME280;12207;50.076;8.848;2022-12-10T12:52:16;99359.16;;;1.92;100.00
23996;BME280;12207;50.076;8.848;2022-12-10T12:54:46;99361.75;;;2.05;100.00
23996;BME280;12207;50.076;8.848;2022-12-10T12:59:44;99371.81;;;2.05;100.00
23996;BME280;12207;50.076;8.848;2022-12-10T13:05:13;99377.06;;;2.32;100.00
23996;BME280;12207;50.076;8.848;2022-12-10T13:07:40;99368.09;;;2.47;100.00
23996;BME280;12207;50.076;8.848;2022-12-10T13:18:46;99373.00;;;2.45;100.00
23996;BME280;12207;50.076;8.848;2022-12-10T13:20:45;99382.53;;;2.38;100.00
23996;BME280;12207;50.076;8.848;2022-12-10T13:28:29;99376.09;;;2.06;100.00
23996;BME280;12207;50.076;8.848;2022-12-10T13:31:08;99375.97;;;1.93;100.00
23996;BME280;12207;50.076;8.848;2022-12-10T13:33:52;99382.66;;;2.04;100.00
23996;BME280;12207;50.076;8.848;2022-12-10T13:36:24;99376.97;;;2.07;100.00
23996;BME280;12207;50.076;8.848;2022-12-10T13:39:10;99383.97;;;2.11;100.00
23996;BME280;12207;50.076;8.848;2022-12-10T13:41:39;99387.59;;;2.14;100.00
23996;BME280;12207;50.076;8.848;2022-12-10T13:44:45;99388.91;;;2.09;100.00
23996;BME280;12207;50.076;8.848;2022-12-10T13:49:48;99404.00;;;2.09;100.00
23996;BME280;12207;50.076;8.848;2022-12-10T13:52:19;99407.19;;;2.07;100.00
23996;BME280;12207;50.076;8.848;2022-12-10T13:55:07;99407.84;;;2.04;100.00
23996;BME280;12207;50.076;8.848;2022-12-10T14:00:21;99416.25;;;2.04;100.00
23996;BME280;12207;50.076;8.848;2022-12-10T14:05:42;99426.31;;;2.04;100.00
23996;BME280;12207;50.076;8.848;2022-12-10T14:08:16;99420.19;;;2.01;100.00
23996;BME280;12207;50.076;8.848;2022-12-10T14:10:44;99430.59;;;1.94;100.00
23996;BME280;12207;50.076;8.848;2022-12-10T14:13:13;99431.78;;;1.99;100.00
23996;BME280;12207;50.076;8.848;2022-12-10T14:15:42;99431.56;;;1.96;100.00
23996;BME280;12207;50.076;8.848;2022-12-10T14:18:14;99437.03;;;2.02;100.00
23996;BME280;12207;50.076;8.848;2022-12-10T14:20:46;99441.41;;;1.93;100.00
23996;BME280;12207;50.076;8.848;2022-12-10T14:23:20;99439.34;;;1.99;100.00
23996;BME280;12207;50.076;8.848;2022-12-10T14:26:04;99450.63;;;2.04;100.00
23996;BME280;12207;50.076;8.848;2022-12-10T14:28:31;99444.81;;;2.05;100.00
23996;BME280;12207;50.076;8.848;2022-12-10T14:30:59;99453.34;;;2.07;100.00
23996;BME280;12207;50.076;8.848;2022-12-10T14:33:26;99458.56;;;1.87;100.00
23996;BME280;12207;50.076;8.848;2022-12-10T14:35:52;99459.25;;;1.96;100.00